Time;durP1;ratioP1;P1;durP2;ratioP2;P2;SDS_P1;SDS_P2;PMS_P1;PMS_P2;Temp;Humidity;BMP_temperature;BMP_pressure;BME280_temperature;BME280_humidity;BME280_pressure;Samples;Min_cycle;Max_cycle;Signal;HPM_P1;HPM_P2
2022/04/14 00:02:10;;;;;;;9.57;5.72;;;;;;;17.11;58.84;100147.56;10232423;28;20079;-62
2022/04/14 00:07:11;;;;;;;10.63;6.60;;;;;;;17.30;58.79;100186.72;10237096;28;20051;-63
2022/04/14 00:12:13;;;;;;;8.35;5.30;;;;;;;17.27;59.65;100190.56;10233954;28;20057;-61
2022/04/14 00:17:14;;;;;;;9.73;5.93;;;;;;;17.18;58.73;100162.00;10233673;28;20051;-62
2022/04/14 00:22:16;;;;;;;8.25;5.30;;;;;;;17.11;59.61;100171.75;10233383;28;20051;-65
2022/04/14 00:27:18;;;;;;;10.00;5.85;;;;;;;17.04;60.31;100178.81;10233104;28;20057;-62
2022/04/14 00:32:20;;;;;;;8.95;5.95;;;;;;;17.03;60.65;100186.03;10233914;28;20042;-62
2022/04/14 00:37:21;;;;;;;8.63;5.25;;;;;;;16.90;60.32;100174.94;10233095;28;20087;-62
2022/04/14 00:42:23;;;;;;;8.18;5.95;;;;;;;16.92;61.23;100192.59;10233006;28;20750;-62
2022/04/14 00:47:24;;;;;;;11.18;6.72;;;;;;;16.70;61.40;100175.22;10235724;28;20599;-63
2022/04/14 00:52:26;;;;;;;6.82;5.60;;;;;;;16.85;61.58;100204.16;10235153;28;20133;-62
2022/04/14 00:57:27;;;;;;;7.50;5.70;;;;;;;16.81;61.18;100189.34;10231100;28;20547;-61
2022/04/14 01:02:29;;;;;;;8.82;5.22;;;;;;;16.83;61.61;100204.31;10230620;28;20161;-63
2022/04/14 01:07:34;;;;;;;9.52;6.60;;;;;;;16.82;61.63;100202.63;10233183;28;20051;-63
2022/04/14 01:12:35;;;;;;;7.32;5.85;;;;;;;16.83;62.52;100220.44;10236702;28;20158;-62
2022/04/14 01:17:37;;;;;;;8.38;6.15;;;;;;;16.61;63.07;100227.28;10228425;28;20039;-63
2022/04/14 01:22:45;;;;;;;9.88;6.40;;;;;;;16.71;62.83;100217.22;10237840;28;20078;-63
2022/04/14 01:27:46;;;;;;;8.23;7.00;;;;;;;16.65;62.71;100219.72;10245275;28;20158;-63
2022/04/14 01:32:48;;;;;;;9.32;5.93;;;;;;;16.54;62.63;100221.72;10231788;28;20063;-63
2022/04/14 01:37:50;;;;;;;6.78;6.07;;;;;;;16.56;62.70;100241.19;10232534;28;20042;-63
2022/04/14 01:42:52;;;;;;;9.60;6.57;;;;;;;16.52;63.83;100245.22;10233294;28;20130;-62
2022/04/14 01:47:53;;;;;;;6.85;6.15;;;;;;;16.43;63.78;100238.13;10228934;28;20707;-63
2022/04/14 01:52:55;;;;;;;8.90;7.13;;;;;;;16.45;63.64;100241.47;10230414;28;20526;-62
2022/04/14 01:57:57;;;;;;;9.15;6.47;;;;;;;16.34;63.68;100237.25;10244241;28;20399;-63
2022/04/14 02:02:59;;;;;;;9.55;7.30;;;;;;;16.18;64.59;100250.59;10240381;28;20066;-63
2022/04/14 02:08:01;;;;;;;7.70;6.65;;;;;;;16.25;64.62;100259.69;10239822;28;20046;-63
2022/04/14 02:13:02;;;;;;;8.05;6.75;;;;;;;16.05;65.21;100243.00;10236513;28;20055;-63
2022/04/14 02:18:04;;;;;;;8.32;7.47;;;;;;;16.09;65.52;100255.06;10235692;28;20678;-62
2022/04/14 02:23:06;;;;;;;9.68;7.43;;;;;;;15.89;65.81;100260.66;10234692;28;20575;-63
2022/04/14 02:28:07;;;;;;;10.05;6.95;;;;;;;15.94;66.00;100262.03;10234745;28;20051;-63
2022/04/14 02:33:08;;;;;;;9.10;7.05;;;;;;;16.03;65.79;100267.31;10233738;28;20053;-63
2022/04/14 02:38:10;;;;;;;11.18;7.32;;;;;;;15.98;65.64;100268.78;10234342;28;20302;-61
2022/04/14 02:43:11;;;;;;;9.90;7.60;;;;;;;15.97;65.74;100277.81;10236581;28;20498;-63
2022/04/14 02:48:12;;;;;;;10.43;8.23;;;;;;;15.90;66.92;100272.25;10239510;28;20066;-64
2022/04/14 02:53:14;;;;;;;9.90;7.85;;;;;;;15.97;66.15;100280.50;10236267;28;20051;-62
2022/04/14 02:58:15;;;;;;;10.68;9.32;;;;;;;15.84;66.86;100272.91;10236487;28;20055;-62
2022/04/14 03:03:17;;;;;;;9.25;8.40;;;;;;;15.92;66.13;100274.78;10234111;28;20047;-63
2022/04/14 03:08:19;;;;;;;16.67;10.25;;;;;;;15.86;66.87;100284.31;10234406;28;20130;-61
2022/04/14 03:13:20;;;;;;;10.50;9.43;;;;;;;15.81;67.39;100289.31;10233477;28;20050;-61
2022/04/14 03:18:22;;;;;;;11.63;10.52;;;;;;;15.74;67.60;100297.09;10230468;28;20050;-62
2022/04/14 03:23:24;;;;;;;13.40;11.20;;;;;;;15.65;67.60;100279.25;10234922;28;20053;-64
2022/04/14 03:28:25;;;;;;;13.27;11.73;;;;;;;15.75;67.93;100298.78;10235058;28;20055;-62
2022/04/14 03:33:32;;;;;;;13.48;12.13;;;;;;;15.79;67.76;100291.28;10237586;28;20106;-62
2022/04/14 03:38:33;;;;;;;14.85;13.30;;;;;;;15.68;68.03;100300.41;10238369;28;20063;-62
2022/04/14 03:43:36;;;;;;;15.45;13.85;;;;;;;15.63;68.59;100292.00;10228997;28;20078;-62
2022/04/14 03:48:37;;;;;;;14.88;13.32;;;;;;;15.64;68.15;100296.34;10228868;28;20051;-61
2022/04/14 03:53:39;;;;;;;16.75;15.00;;;;;;;15.42;68.62;100295.84;10232203;28;20051;-61
2022/04/14 03:58:40;;;;;;;16.65;14.98;;;;;;;15.54;68.83;100316.06;10233365;28;20150;-62
2022/04/14 04:03:41;;;;;;;16.85;15.18;;;;;;;15.56;68.76;100308.69;10231155;28;20631;-61
2022/04/14 04:08:43;;;;;;;16.20;14.63;;;;;;;15.44;69.12;100317.97;10230734;28;20047;-61
2022/04/14 04:13:44;;;;;;;17.63;15.60;;;;;;;15.28;69.60;100296.38;10235243;28;20063;-62
2022/04/14 04:18:46;;;;;;;22.95;17.10;;;;;;;15.47;69.17;100314.16;10229737;28;20054;-61
2022/04/14 04:23:47;;;;;;;16.30;14.70;;;;;;;15.48;68.98;100327.41;10233601;28;20597;-62
2022/04/14 04:28:48;;;;;;;17.35;14.95;;;;;;;15.41;69.17;100342.44;10233083;28;20046;-62
2022/04/14 04:33:51;;;;;;;18.17;16.10;;;;;;;15.26;69.87;100322.50;10229499;28;20138;-61
2022/04/14 04:38:52;;;;;;;18.15;15.98;;;;;;;15.37;69.42;100333.00;10231262;28;20635;-64
2022/04/14 04:43:54;;;;;;;18.13;15.60;;;;;;;15.37;69.10;100339.22;10233715;28;20137;-62
2022/04/14 04:48:55;;;;;;;17.35;15.55;;;;;;;15.41;69.45;100349.63;10234327;28;20051;-62
2022/04/14 04:53:57;;;;;;;18.17;15.10;;;;;;;15.37;68.84;100343.72;10220607;28;20061;-62
2022/04/14 04:58:58;;;;;;;20.17;15.82;;;;;;;15.43;68.76;100366.41;10215785;28;20062;-63
2022/04/14 05:04:00;;;;;;;18.90;15.30;;;;;;;15.28;69.66;100363.41;10215156;28;20137;-63
2022/04/14 05:09:01;;;;;;;17.65;15.50;;;;;;;15.38;69.00;100374.91;10215091;28;20065;-62
2022/04/14 05:14:03;;;;;;;17.33;15.30;;;;;;;15.34;69.15;100382.44;10216245;28;20047;-62
2022/04/14 05:19:05;;;;;;;17.10;15.50;;;;;;;15.27;69.30;100367.09;10206924;28;20061;-63
2022/04/14 05:24:07;;;;;;;16.67;14.77;;;;;;;15.47;69.02;100389.25;10209218;28;20063;-67
2022/04/14 05:29:09;;;;;;;15.88;14.25;;;;;;;15.48;68.53;100386.44;10220546;28;20133;-62
2022/04/14 05:34:10;;;;;;;17.33;15.57;;;;;;;15.42;68.94;100387.03;10216986;28;20058;-62
2022/04/14 05:39:12;;;;;;;16.38;14.30;;;;;;;15.48;68.41;100390.97;10207481;28;20057;-62
2022/04/14 05:44:13;;;;;;;17.42;14.80;;;;;;;15.59;67.94;100403.31;10210752;28;20144;-64
2022/04/14 05:49:15;;;;;;;18.27;15.30;;;;;;;15.66;67.91;100399.03;10223070;28;20517;-63
2022/04/14 05:54:17;;;;;;;18.17;14.20;;;;;;;15.75;67.31;100403.47;10218215;28;20055;-63
2022/04/14 05:59:18;;;;;;;15.80;14.10;;;;;;;15.73;67.32;100383.97;10216391;28;20098;-62
2022/04/14 06:04:20;;;;;;;14.73;13.20;;;;;;;15.98;66.84;100405.69;10219422;28;20050;-62
2022/04/14 06:09:21;;;;;;;13.98;12.60;;;;;;;16.02;66.25;100399.03;10221085;28;20055;-60
2022/04/14 06:14:23;;;;;;;14.57;13.07;;;;;;;16.18;65.46;100403.66;10218388;28;20175;-62
2022/04/14 06:19:24;;;;;;;14.70;12.95;;;;;;;16.31;64.86;100403.25;10218593;28;20055;-63
2022/04/14 06:24:26;;;;;;;13.90;11.20;;;;;;;16.47;64.46;100408.75;10213745;28;20062;-62
2022/04/14 06:29:27;;;;;;;14.27;11.38;;;;;;;16.69;64.58;100414.56;10217004;28;20142;-62
2022/04/14 06:34:29;;;;;;;13.13;11.82;;;;;;;16.87;63.29;100420.75;10215891;28;20149;-62
2022/04/14 06:39:30;;;;;;;16.45;12.27;;;;;;;16.85;62.95;100409.28;10219499;28;20144;-61
2022/04/14 06:44:31;;;;;;;13.60;12.15;;;;;;;16.67;63.44;100409.38;10218485;28;20051;-61
2022/04/14 06:49:34;;;;;;;15.55;12.88;;;;;;;16.45;63.84;100373.13;10216251;28;20066;-62
2022/04/14 06:54:35;;;;;;;13.25;11.85;;;;;;;16.50;64.35;100408.44;10218228;28;20132;-62
2022/04/14 06:59:36;;;;;;;15.57;13.25;;;;;;;16.52;64.60;100422.53;10217214;28;20046;-60
2022/04/14 07:04:38;;;;;;;16.13;14.27;;;;;;;16.52;64.52;100422.53;10216706;28;20055;-60
2022/04/14 07:09:39;;;;;;;15.00;13.40;;;;;;;16.39;65.69;100427.47;10216289;28;20062;-64
2022/04/14 07:14:40;;;;;;;17.42;13.45;;;;;;;16.50;64.91;100438.00;10216234;28;20613;-62
2022/04/14 07:19:42;;;;;;;17.30;13.35;;;;;;;16.51;64.80;100428.91;10218856;28;20382;-63
2022/04/14 07:24:48;;;;;;;17.02;13.20;;;;;;;16.56;64.84;100447.28;10212936;28;20626;-63
2022/04/14 07:29:50;;;;;;;16.77;13.10;;;;;;;16.60;66.08;100452.16;10215505;28;20747;-63
2022/04/14 07:34:51;;;;;;;14.23;12.38;;;;;;;16.75;66.10;100460.50;10215536;28;20114;-63
2022/04/14 07:39:52;;;;;;;14.73;12.48;;;;;;;16.66;65.59;100444.47;10217339;28;20058;-64
2022/04/14 07:44:54;;;;;;;15.52;13.88;;;;;;;16.73;65.75;100461.66;10216166;28;20055;-63
2022/04/14 07:50:01;;;;;;;13.13;11.75;;;;;;;16.72;64.85;100460.81;10213607;28;20651;-64
2022/04/14 07:55:03;;;;;;;13.82;12.45;;;;;;;16.79;65.00;100477.97;10215673;28;20413;-62
2022/04/14 08:00:05;;;;;;;14.57;12.13;;;;;;;16.69;65.53;100484.47;10227961;28;20058;-62
2022/04/14 08:05:07;;;;;;;15.55;12.85;;;;;;;16.74;64.89;100495.59;10212696;28;21003;-64
2022/04/14 08:10:08;;;;;;;14.20;11.02;;;;;;;16.77;64.50;100498.78;10214553;28;20054;-62
2022/04/14 08:15:12;;;;;;;14.38;11.32;;;;;;;16.67;64.39;100499.91;10214692;28;20142;-62
2022/04/14 08:20:14;;;;;;;12.40;10.63;;;;;;;16.69;63.88;100505.97;10218351;28;20055;-61
2022/04/14 08:25:22;;;;;;;12.55;11.23;;;;;;;16.73;63.93;100512.72;10217846;28;20045;-62
2022/04/14 08:30:25;;;;;;;12.10;10.13;;;;;;;16.65;63.45;100512.63;10216200;28;20061;-65
2022/04/14 08:35:27;;;;;;;11.97;9.33;;;;;;;16.67;63.71;100521.41;10216818;28;20063;-60
2022/04/14 08:40:34;;;;;;;11.52;9.48;;;;;;;16.64;63.29;100521.72;10224085;28;20121;-63
2022/04/14 08:45:44;;;;;;;11.82;9.55;;;;;;;16.71;63.48;100544.25;10214984;28;20122;-62
2022/04/14 08:50:49;;;;;;;11.00;9.88;;;;;;;16.79;62.89;100526.34;10215288;28;20057;-63
2022/04/14 08:55:51;;;;;;;12.93;10.43;;;;;;;16.82;62.75;100535.97;10208749;28;20095;-64
2022/04/14 09:00:56;;;;;;;11.98;8.55;;;;;;;16.89;62.32;100542.44;10204893;28;20046;-62
2022/04/14 09:06:17;;;;;;;11.23;8.13;;;;;;;16.77;63.08;100536.44;10215124;28;20074;-62
2022/04/14 09:11:20;;;;;;;8.20;7.35;;;;;;;17.03;62.77;100529.41;10218702;28;20432;-64
2022/04/14 09:16:22;;;;;;;10.23;7.70;;;;;;;17.26;61.58;100541.31;10215760;28;20550;-65
2022/04/14 09:21:24;;;;;;;9.00;6.65;;;;;;;17.56;60.62;100517.53;10217812;28;20062;-64
2022/04/14 09:26:26;;;;;;;9.90;6.40;;;;;;;18.13;59.24;100532.19;10214322;28;20083;-65
2022/04/14 09:31:28;;;;;;;8.15;5.72;;;;;;;18.42;58.03;100525.47;10217242;28;20055;-64
2022/04/14 09:36:30;;;;;;;8.35;6.20;;;;;;;18.90;57.03;100526.50;10217782;28;21368;-64
2022/04/14 09:41:42;;;;;;;6.68;5.47;;;;;;;19.90;54.45;100523.25;10221802;28;20536;-64
2022/04/14 09:46:47;;;;;;;5.05;4.53;;;;;;;20.87;51.98;100534.53;10221558;28;20105;-63
2022/04/14 09:51:50;;;;;;;6.93;4.93;;;;;;;21.05;50.18;100531.47;10220265;28;20112;-64
2022/04/14 09:56:53;;;;;;;;;;;;;;;21.74;48.54;100539.31;10222154;28;20051;-65
2022/04/14 10:02:16;;;;;;;5.40;4.20;;;;;;;21.63;47.52;100535.22;10218355;28;19933;-65
2022/04/14 10:07:19;;;;;;;6.63;3.90;;;;;;;21.76;48.46;100545.38;10220859;28;20051;-62
2022/04/14 10:12:23;;;;;;;6.05;4.68;;;;;;;21.10;49.90;100554.25;10218725;28;20061;-67
2022/04/14 10:17:25;;;;;;;7.80;4.78;;;;;;;19.92;54.07;100566.28;10229425;28;20058;-62
2022/04/14 10:22:27;;;;;;;5.60;5.10;;;;;;;19.29;55.87;100558.13;10213443;28;20071;-63
2022/04/14 10:27:30;;;;;;;5.20;4.13;;;;;;;18.98;56.95;100572.34;10213984;28;20814;-63
2022/04/14 10:32:33;;;;;;;6.53;4.40;;;;;;;18.89;56.25;100573.38;10214074;28;20055;-64
2022/04/14 10:37:49;;;;;;;4.97;3.60;;;;;;;18.53;57.22;100574.50;10218299;28;20054;-63
2022/04/14 10:42:53;;;;;;;6.03;3.60;;;;;;;18.36;57.63;100557.50;10223920;28;20057;-63
2022/04/14 10:47:56;;;;;;;5.25;4.68;;;;;;;18.41;57.62;100569.63;10217658;28;20047;-62
2022/04/14 10:53:03;;;;;;;7.25;4.53;;;;;;;18.04;58.83;100573.59;10216783;28;20172;-64
2022/04/14 10:58:07;;;;;;;5.13;3.58;;;;;;;18.39;57.42;100572.50;10219414;28;20134;-63
2022/04/14 11:03:13;;;;;;;4.30;3.25;;;;;;;18.57;56.38;100574.16;10218124;28;20051;-64
2022/04/14 11:08:21;;;;;;;6.95;4.00;;;;;;;18.51;56.26;100581.06;10219878;28;20058;-63
2022/04/14 11:13:52;;;;;;;2.92;2.33;;;;;;;18.60;55.64;100584.63;10220124;28;20053;-64
2022/04/14 11:19:19;;;;;;;4.18;2.15;;;;;;;18.91;54.45;100576.72;10232097;28;20146;-64
2022/04/14 11:24:42;;;;;;;3.55;1.70;;;;;;;19.11;52.84;100568.25;10241130;28;20116;-64
2022/04/14 11:29:51;;;;;;;1.42;0.93;;;;;;;19.28;51.40;100567.22;10213753;28;20085;-64
2022/04/14 11:35:16;;;;;;;5.63;4.03;;;;;;;19.35;50.37;100562.81;10229303;28;20059;-64
2022/04/14 11:40:21;;;;;;;18.17;13.10;;;;;;;19.73;50.23;100554.91;10214940;28;20812;-64
2022/04/14 11:45:27;;;;;;;3.30;1.88;;;;;;;19.95;48.97;100552.44;10212021;28;20186;-64
2022/04/14 11:50:32;;;;;;;4.53;3.33;;;;;;;20.84;47.45;100555.53;10215067;28;20043;-65
2022/04/14 11:55:35;;;;;;;3.15;2.00;;;;;;;21.65;45.21;100535.03;10210271;28;20069;-65
2022/04/14 12:00:47;;;;;;;4.32;2.50;;;;;;;22.40;43.44;100543.81;10209807;28;20082;-64
2022/04/14 12:05:50;;;;;;;3.63;2.45;;;;;;;22.05;44.36;100532.78;10215024;28;20070;-64
2022/04/14 12:10:51;;;;;;;;;;;;;;;22.13;44.24;100557.06;10209916;28;20051;-64
2022/04/14 12:16:12;;;;;;;3.42;2.47;;;;;;;21.57;45.75;100548.69;10207800;28;20045;-64
2022/04/14 12:21:24;;;;;;;3.35;2.67;;;;;;;21.01;46.61;100541.84;10213742;28;20120;-64
2022/04/14 12:26:28;;;;;;;29.10;26.15;;;;;;;20.82;47.15;100549.47;10211894;28;20050;-64
2022/04/14 12:31:30;;;;;;;4.78;3.25;;;;;;;20.86;47.82;100535.56;10212710;28;21207;-64
2022/04/14 12:36:37;;;;;;;2.85;2.60;;;;;;;21.81;45.73;100537.53;10213121;28;20055;-64
2022/04/14 12:41:38;;;;;;;5.20;3.22;;;;;;;22.85;42.99;100532.69;10215714;28;20130;-63
2022/04/14 12:46:41;;;;;;;3.53;2.05;;;;;;;23.30;41.84;100525.91;10221434;28;20064;-64
2022/04/14 12:51:51;;;;;;;4.28;2.90;;;;;;;23.15;41.98;100508.91;10211943;28;20051;-63
2022/04/14 12:57:04;;;;;;;3.45;2.40;;;;;;;22.56;42.32;100521.84;10210865;28;20606;-64
2022/04/14 13:02:07;;;;;;;;;;;;;;;22.56;43.10;100521.84;10211012;28;20066;-62
2022/04/14 13:07:16;;;;;;;3.30;2.53;;;;;;;22.27;44.48;100521.97;10210904;28;20523;-63
2022/04/14 13:12:37;;;;;;;4.30;2.00;;;;;;;22.79;43.94;100520.75;10207180;28;20565;-62
2022/04/14 13:17:39;;;;;;;2.80;1.90;;;;;;;22.75;42.65;100517.59;10206368;28;20051;-65
2022/04/14 13:22:41;;;;;;;2.97;2.53;;;;;;;22.50;43.24;100522.59;10209087;28;20079;-64
2022/04/14 13:27:42;;;;;;;2.88;2.08;;;;;;;22.37;43.36;100508.94;10206840;28;20737;-64
2022/04/14 13:32:44;;;;;;;5.28;3.05;;;;;;;22.33;43.59;100504.94;10218709;28;20121;-65
2022/04/14 13:37:46;;;;;;;9.10;2.13;;;;;;;22.24;43.39;100515.88;10207255;28;20058;-63
2022/04/14 13:42:47;;;;;;;6.95;5.18;;;;;;;21.84;44.31;100526.31;10209580;28;20062;-64
2022/04/14 13:47:48;;;;;;;11.25;9.35;;;;;;;21.21;45.72;100530.47;10204438;28;20061;-63
2022/04/14 13:52:50;;;;;;;5.38;2.53;;;;;;;20.88;46.49;100533.50;10212749;28;20541;-64
2022/04/14 13:57:51;;;;;;;3.63;2.80;;;;;;;20.65;47.38;100531.66;10222373;28;20038;-64
2022/04/14 14:02:53;;;;;;;4.65;3.13;;;;;;;20.34;48.19;100537.16;10219453;28;20047;-61
2022/04/14 14:07:54;;;;;;;3.53;3.00;;;;;;;20.26;49.01;100543.47;10217388;28;20516;-62
2022/04/14 14:12:55;;;;;;;4.35;3.20;;;;;;;20.17;49.39;100544.56;10220260;28;20046;-64
2022/04/14 14:17:57;;;;;;;3.63;2.50;;;;;;;19.99;50.55;100550.25;10215300;28;20129;-63
2022/04/14 14:22:59;;;;;;;20.90;17.30;;;;;;;19.81;51.40;100545.09;10218334;28;20043;-63
2022/04/14 14:28:01;;;;;;;5.90;4.97;;;;;;;19.72;50.62;100542.41;10214060;28;20090;-63
2022/04/14 14:33:02;;;;;;;4.95;3.65;;;;;;;19.75;50.33;100547.44;10236024;28;20055;-63
2022/04/14 14:38:05;;;;;;;5.50;3.25;;;;;;;19.64;50.55;100549.72;10219530;28;20055;-63
2022/04/14 14:43:06;;;;;;;4.97;3.85;;;;;;;19.66;50.50;100548.50;10214306;28;20134;-62
2022/04/14 14:48:08;;;;;;;5.88;3.20;;;;;;;19.66;50.72;100542.28;10221037;28;20107;-61
2022/04/14 14:53:11;;;;;;;3.40;2.80;;;;;;;19.81;51.30;100539.69;10219622;28;20069;-60
2022/04/14 15:03:32;;;;;;;4.28;3.13;;;;;;;20.03;50.56;100538.06;10215356;28;20042;-61
2022/04/14 15:08:33;;;;;;;3.15;2.40;;;;;;;19.86;51.01;100554.38;10215967;28;20072;-61
2022/04/14 15:13:35;;;;;;;3.45;3.15;;;;;;;19.72;50.92;100547.78;10217389;28;21335;-62
2022/04/14 15:18:36;;;;;;;3.13;2.55;;;;;;;19.64;50.76;100539.75;10210373;28;20664;-62
2022/04/14 15:23:38;;;;;;;5.25;3.33;;;;;;;19.98;49.84;100549.38;10218036;28;20043;-61
2022/04/14 15:28:39;;;;;;;3.60;2.95;;;;;;;20.19;48.62;100550.59;10217987;28;20051;-62
2022/04/14 15:33:41;;;;;;;2.47;2.08;;;;;;;20.45;47.89;100540.28;10214831;28;20425;-62
2022/04/14 15:38:43;;;;;;;3.78;2.45;;;;;;;20.48;46.79;100552.59;10212853;28;20069;-61
2022/04/14 15:43:45;;;;;;;2.88;2.17;;;;;;;20.23;47.50;100557.34;10208231;28;20461;-61
2022/04/14 15:48:47;;;;;;;3.22;2.33;;;;;;;20.17;47.80;100560.75;10210112;28;20078;-61
2022/04/14 15:53:49;;;;;;;3.75;1.90;;;;;;;20.02;47.94;100558.81;10214562;28;20524;-63
2022/04/14 15:58:50;;;;;;;2.95;1.92;;;;;;;19.80;48.64;100562.31;10211212;28;20742;-62
2022/04/14 16:03:51;;;;;;;3.33;2.15;;;;;;;19.55;48.86;100548.91;10216473;28;20552;-62
2022/04/14 16:08:53;;;;;;;3.00;1.83;;;;;;;19.40;49.70;100557.72;10213426;28;20055;-62
2022/04/14 16:13:55;;;;;;;3.25;2.25;;;;;;;19.32;50.12;100565.00;10214201;28;20057;-63
2022/04/14 16:18:56;;;;;;;2.60;1.90;;;;;;;19.13;50.05;100563.56;10212385;28;20063;-61
2022/04/14 16:23:58;;;;;;;3.65;1.85;;;;;;;19.18;50.18;100562.00;10215342;28;20047;-61
2022/04/14 16:29:00;;;;;;;2.30;2.05;;;;;;;19.29;50.17;100563.50;10210170;28;20137;-62
2022/04/14 16:34:02;;;;;;;3.10;2.05;;;;;;;19.27;49.85;100543.09;10216537;28;20053;-62
2022/04/14 16:39:04;;;;;;;3.35;2.20;;;;;;;19.35;49.75;100557.41;10214461;28;20063;-62
2022/04/14 16:44:05;;;;;;;4.45;1.85;;;;;;;19.38;49.63;100562.47;10205624;28;20059;-63
2022/04/14 16:49:07;;;;;;;2.78;1.60;;;;;;;19.18;49.60;100539.59;10209116;28;20491;-62
2022/04/14 16:54:08;;;;;;;2.40;2.13;;;;;;;19.14;49.38;100543.63;10212824;28;20065;-62
2022/04/14 16:59:10;;;;;;;2.03;1.70;;;;;;;19.12;49.63;100561.84;10216979;28;20130;-62
2022/04/14 17:04:11;;;;;;;3.35;1.98;;;;;;;19.02;49.37;100548.53;10213225;28;20061;-62
2022/04/14 17:09:12;;;;;;;3.05;2.00;;;;;;;18.94;49.66;100553.97;10209911;28;20502;-62
2022/04/14 17:14:14;;;;;;;2.28;1.63;;;;;;;18.94;49.91;100570.97;10208979;28;20545;-63
2022/04/14 17:19:16;;;;;;;2.72;2.08;;;;;;;18.83;49.61;100568.63;10208422;28;20051;-63
2022/04/14 17:24:20;;;;;;;2.97;2.20;;;;;;;18.73;50.00;100575.03;10204721;28;20803;-60
2022/04/14 17:29:21;;;;;;;2.22;1.75;;;;;;;18.57;50.13;100563.38;10205183;28;20086;-62
2022/04/14 17:34:23;;;;;;;3.20;2.05;;;;;;;18.41;50.25;100573.16;10207727;28;20069;-63
2022/04/14 17:39:25;;;;;;;1.73;1.63;;;;;;;18.37;50.72;100575.34;10208350;28;20058;-63
2022/04/14 17:44:26;;;;;;;1.90;1.50;;;;;;;18.31;50.78;100576.00;10203792;28;20056;-64
2022/04/14 17:49:28;;;;;;;2.50;1.67;;;;;;;18.32;50.74;100590.34;10203845;28;21139;-62
2022/04/14 17:54:29;;;;;;;2.25;1.08;;;;;;;18.23;51.20;100589.47;10230382;28;20374;-62
2022/04/14 17:59:31;;;;;;;3.15;1.52;;;;;;;18.16;51.37;100594.66;10223254;28;20163;-63
2022/04/14 18:04:33;;;;;;;1.60;1.05;;;;;;;18.07;51.74;100600.19;10223118;28;20078;-60
2022/04/14 18:09:34;;;;;;;2.47;1.20;;;;;;;18.05;51.70;100607.63;10220176;28;20085;-61
2022/04/14 18:14:36;;;;;;;4.00;1.95;;;;;;;17.86;52.21;100587.97;10218332;28;20173;-63
2022/04/14 18:19:42;;;;;;;2.60;1.63;;;;;;;17.85;52.75;100603.31;10221081;28;20066;-60
2022/04/14 18:24:43;;;;;;;3.58;2.38;;;;;;;17.74;53.05;100610.81;10221779;28;20047;-60
2022/04/14 18:29:45;;;;;;;2.70;1.85;;;;;;;17.65;53.92;100613.50;10218987;28;20073;-60
2022/04/14 18:34:46;;;;;;;4.75;2.05;;;;;;;17.62;54.57;100621.03;10216402;28;20055;-61
2022/04/14 18:39:48;;;;;;;5.32;2.17;;;;;;;17.55;54.33;100628.91;10219519;28;20125;-65
2022/04/14 18:44:49;;;;;;;3.72;2.65;;;;;;;17.48;54.40;100627.84;10211153;28;20979;-61
2022/04/14 18:49:51;;;;;;;4.00;2.88;;;;;;;17.45;54.22;100644.31;10214049;28;20063;-61
2022/04/14 18:54:52;;;;;;;3.92;2.92;;;;;;;17.27;54.22;100633.63;10212460;28;20059;-61
2022/04/14 18:59:53;;;;;;;5.30;2.90;;;;;;;17.30;54.91;100649.44;10213093;28;20062;-62
2022/04/14 19:04:55;;;;;;;3.03;2.42;;;;;;;17.14;55.08;100637.56;10210338;28;20173;-61
2022/04/14 19:09:58;;;;;;;4.75;3.10;;;;;;;17.05;55.64;100641.19;10216037;28;20082;-61
2022/04/14 19:15:00;;;;;;;5.47;4.40;;;;;;;17.06;56.21;100655.50;10218023;28;20148;-63
2022/04/14 19:20:03;;;;;;;6.93;5.00;;;;;;;17.02;56.54;100659.47;10217962;28;20069;-63
2022/04/14 19:25:05;;;;;;;7.67;5.00;;;;;;;17.02;56.83;100654.09;10213133;28;20145;-62
2022/04/14 19:30:08;;;;;;;7.50;5.38;;;;;;;16.98;56.76;100660.78;10214614;28;20574;-62
2022/04/14 19:35:09;;;;;;;10.63;9.10;;;;;;;16.96;57.43;100661.81;10210284;28;20051;-62
2022/04/14 19:40:12;;;;;;;10.80;8.35;;;;;;;16.83;57.30;100663.16;10212331;28;20138;-64
2022/04/14 19:45:14;;;;;;;10.98;8.68;;;;;;;16.68;57.81;100658.31;10215152;28;20059;-64
2022/04/14 19:50:15;;;;;;;8.23;7.13;;;;;;;16.63;58.04;100665.16;10220611;28;20057;-63
2022/04/14 19:55:17;;;;;;;9.60;6.60;;;;;;;16.61;58.29;100679.56;10220761;28;20100;-63
2022/04/14 20:00:18;;;;;;;10.00;6.78;;;;;;;16.51;58.32;100678.78;10215462;28;20074;-63
2022/04/14 20:05:20;;;;;;;8.73;7.20;;;;;;;16.47;58.65;100685.50;10211932;28;20059;-62
2022/04/14 20:10:21;;;;;;;8.50;7.28;;;;;;;16.37;59.29;100680.16;10205090;28;20150;-62
2022/04/14 20:15:23;;;;;;;8.10;7.22;;;;;;;16.07;59.39;100649.09;10211807;28;20080;-62
2022/04/14 20:20:24;;;;;;;7.75;6.53;;;;;;;16.13;59.80;100669.16;10212934;28;20165;-60
2022/04/14 20:25:25;;;;;;;8.77;6.90;;;;;;;16.27;59.92;100692.81;10209447;28;20053;-62
2022/04/14 20:30:27;;;;;;;8.73;6.70;;;;;;;16.13;60.62;100671.84;10210298;28;20172;-63
2022/04/14 20:35:29;;;;;;;7.32;6.43;;;;;;;16.17;60.35;100676.75;10209879;28;20055;-61
2022/04/14 20:40:30;;;;;;;9.68;7.00;;;;;;;16.28;60.38;100678.38;10214806;28;21076;-61
2022/04/14 20:45:32;;;;;;;16.98;15.15;;;;;;;16.28;60.30;100685.63;10215540;28;20985;-64
2022/04/14 20:50:33;;;;;;;10.35;9.40;;;;;;;16.24;60.03;100677.84;10207055;28;20047;-62
2022/04/14 20:55:35;;;;;;;7.70;6.78;;;;;;;16.12;60.82;100675.50;10212131;28;20502;-62
2022/04/14 21:00:36;;;;;;;6.95;6.25;;;;;;;16.08;61.01;100683.03;10220375;28;20062;-62
2022/04/14 21:05:38;;;;;;;8.30;7.43;;;;;;;16.11;61.13;100690.78;10221328;28;20051;-62
2022/04/14 21:10:44;;;;;;;8.80;7.93;;;;;;;16.24;61.17;100693.97;10218539;28;20082;-62
2022/04/14 21:15:45;;;;;;;8.27;7.22;;;;;;;16.25;61.40;100700.19;10216373;28;20070;-62
2022/04/14 21:20:47;;;;;;;7.55;6.82;;;;;;;16.29;61.64;100692.66;10224183;28;20143;-62
2022/04/14 21:25:48;;;;;;;7.40;6.47;;;;;;;16.21;61.52;100691.59;10224722;28;20154;-61
2022/04/14 21:30:49;;;;;;;9.98;6.63;;;;;;;16.19;62.29;100707.00;10235921;28;20114;-60
2022/04/14 21:35:51;;;;;;;8.00;6.53;;;;;;;16.13;62.08;100690.63;10229230;28;20125;-61
2022/04/14 21:40:52;;;;;;;7.35;6.28;;;;;;;16.25;62.05;100706.38;10242127;28;20077;-60
2022/04/14 21:45:53;;;;;;;12.93;7.63;;;;;;;16.23;62.59;100694.97;10240610;28;20055;-61
2022/04/14 21:50:56;;;;;;;7.72;6.93;;;;;;;16.17;62.64;100684.81;10248156;28;20075;-62
2022/04/14 21:55:58;;;;;;;8.32;6.82;;;;;;;16.15;62.66;100694.00;10246581;28;20050;-62
2022/04/14 22:00:59;;;;;;;7.88;6.15;;;;;;;16.20;62.58;100719.44;10250582;28;20061;-62
2022/04/14 22:06:02;;;;;;;8.82;6.82;;;;;;;16.26;62.45;100715.31;10241693;28;20521;-61
2022/04/14 22:11:06;;;;;;;8.43;6.32;;;;;;;16.23;62.69;100713.75;10233327;28;20078;-61
2022/04/14 22:16:07;;;;;;;7.55;6.20;;;;;;;16.19;62.25;100701.63;10238475;28;20061;-62
2022/04/14 22:21:09;;;;;;;7.22;6.20;;;;;;;16.28;62.81;100720.53;10235046;28;20686;-61
2022/04/14 22:26:11;;;;;;;7.97;7.18;;;;;;;16.16;62.52;100707.28;10236162;28;20133;-61
2022/04/14 22:31:12;;;;;;;7.05;6.30;;;;;;;16.20;61.98;100724.81;10242853;28;20193;-62
2022/04/14 22:36:13;;;;;;;7.45;6.40;;;;;;;16.14;62.47;100720.03;10237023;28;20074;-61
2022/04/14 22:41:16;;;;;;;6.97;6.30;;;;;;;16.13;62.65;100712.97;10236719;28;20047;-62
2022/04/14 22:46:18;;;;;;;7.45;6.15;;;;;;;16.13;62.60;100729.06;10234761;28;20046;-62
2022/04/14 22:51:19;;;;;;;7.63;6.32;;;;;;;15.94;63.29;100718.41;10236911;28;20054;-61
2022/04/14 22:56:21;;;;;;;7.65;6.18;;;;;;;16.02;63.53;100729.28;10234654;28;20051;-62
2022/04/14 23:01:22;;;;;;;9.15;7.03;;;;;;;15.87;63.64;100736.97;10236387;28;20051;-61
2022/04/14 23:06:24;;;;;;;9.60;8.18;;;;;;;15.70;63.96;100739.38;10237278;28;20557;-62
2022/04/14 23:11:25;;;;;;;12.10;9.32;;;;;;;15.47;64.33;100736.16;10236383;28;20047;-62